Brak ostrzeżeń pogodowych   -   Brak ostrzeżeń pogodowych

Raporty Pogodowe z Lotnisk

 

EPKK - Krakow/Balice, Poland
Odległość od stacji: Zd 81km
Aktualizacja: 21/05/2018 22:00
Częściowe zachmurzenie
Częściowe zachmurzenie
 Wiatr z PnWs
Wiatr: PnWs 13 km/h
Temperatura: 15°C
Punkt Rosy: 6°C
Wilgotność Względna: 55%
Ciśnienie Względne: 1018 hPa
Chmury: Częściowe zachmurzenie
Widoczność: 10 km
Szczegóły chmur: Częściowe zachmurzenie 2012 m
2018/05/21 20:00 EPKK 212000Z 04007KT 9999 SCT066 15/06 Q1018
EPRZ - Rzeszow/Jasionka, Poland
Odległość od stacji: Ws 81km
Aktualizacja: 21/05/2018 22:00
Bezchmurnie
Bezchmurnie
 Wiatr z WsPnWs
Wiatr: WsPnWs 11 km/h
Temperatura: 13°C
Punkt Rosy: 5°C
Wilgotność Względna: 59%
Ciśnienie Względne: 1019 hPa
Podsumowanie: Bezchmurnie
Widoczność: większa niż 10 km
2018/05/21 20:00 EPRZ 212000Z 07006KT CAVOK 13/05 Q1019
 
EPKT - Katowice/Pyrzowice, Poland
Odległość od stacji: ZdPnZd 141km
Aktualizacja: 21/05/2018 22:00
Bezchmurnie
Bezchmurnie
 Wiatr z PnWs
Wiatr: PnWs 9 km/h
Temperatura: 12°C
Punkt Rosy: 5°C
Wilgotność Względna: 63%
Ciśnienie Względne: 1018 hPa
Podsumowanie: Bezchmurnie
Widoczność: większa niż 10 km
2018/05/21 20:00 EPKT 212000Z 05005KT CAVOK 12/05 Q1018
EPWA - Warsaw/Okecie, Poland
Odległość od stacji: Pn 240km
Aktualizacja: 21/05/2018 22:00
Bezchmurnie
Bezchmurnie
 Wiatr z Ws
Wiatr: Ws 17 km/h
Temperatura: 14°C
Punkt Rosy: 5°C
Wilgotność Względna: 55%
Ciśnienie Względne: 1021 hPa
Podsumowanie: Bezchmurnie
Widoczność: większa niż 10 km
2018/05/21 20:00 EPWA 212000Z 10009KT CAVOK 14/05 Q1021 NOSIG
 
EPLL - Lodz/Lublinek, Poland
Odległość od stacji: PnPnZd 218km
Aktualizacja: 21/05/2018 22:00
Bezchmurnie
Bezchmurnie
 Wiatr z Ws
Wiatr: Ws 9 km/h
Temperatura: 14°C
Punkt Rosy: 6°C
Wilgotność Względna: 59%
Ciśnienie Względne: 1019 hPa
Podsumowanie: Bezchmurnie
Widoczność: większa niż 10 km
2018/05/21 20:00 EPLL 212000Z 08005KT CAVOK 14/06 Q1019
EPWR - Wroclaw/Strachowice, Poland
Odległość od stacji: ZdPnZd 311km
Aktualizacja: 21/05/2018 22:00
Bezchmurnie
Bezchmurnie
 Wiatr z Ws
Wiatr: Ws 15 km/h
Temperatura: 15°C
Punkt Rosy: 6°C
Wilgotność Względna: 55%
Ciśnienie Względne: 1018 hPa
Podsumowanie: Bezchmurnie
Widoczność: większa niż 10 km
2018/05/21 20:00 EPWR 212000Z 09008KT CAVOK 15/06 Q1018
 
EPGD - Gdansk/Rebiechowo, Poland
Odległość od stacji: PnZd 553km
Aktualizacja: 21/05/2018 22:00
Bezchmurnie
Bezchmurnie
 Wiatr z PnWs
Wiatr: PnWs 15 km/h
Temperatura: 14°C
Punkt Rosy: 6°C
Wilgotność Względna: 59%
Ciśnienie Względne: 1021 hPa
Podsumowanie: Bezchmurnie
Widoczność: większa niż 10 km
2018/05/21 20:00 EPGD 212000Z 05008KT CAVOK 14/06 Q1021
EPSC - Szczecin/Goleniow, Poland
Odległość od stacji: ZdPnZd 635km
Aktualizacja: 01/01/1970 01:00
Nieaktualny
unable to load EPSC data RC=404 Not Found
unable to load EPSC data RC=404 Not Found